Time;durP1;ratioP1;P1;durP2;ratioP2;P2;SDS_P1;SDS_P2;PMS_P1;PMS_P2;Temp;Humidity;BMP_temperature;BMP_pressure;BME280_temperature;BME280_humidity;BME280_pressure;Samples;Min_cycle;Max_cycle;Signal;HPM_P1;HPM_P2
2023/10/13 00:00:58;;;;;;;;;;;;;;;;;;2073248;28;20403;-80
2023/10/13 00:02:19;;;;;;;;;;;;;;;;;;2076235;28;19963;-80
2023/10/13 00:03:39;;;;;;;;;;;;;;;;;;2081771;28;19909;-81
2023/10/13 00:04:59;;;;;;;;;;;;;;;;;;2080187;28;20358;-80
2023/10/13 00:06:18;;;;;;;;;;;;;;;;;;2074506;28;19913;-80
2023/10/13 00:07:37;;;;;;;;;;;;;;;;;;2069583;28;20306;-81
2023/10/13 00:08:56;;;;;;;;;;;;;;;;;;2079330;28;19905;-81
2023/10/13 00:10:18;;;;;;;;;;;;;;;;;;2075251;28;19909;-80
2023/10/13 00:11:37;;;;;;;;;;;;;;;;;;2074784;28;20394;-79
2023/10/13 00:13:05;;;;;;;;;;;;;;;;;;2077518;28;19905;-80
2023/10/13 00:14:33;;;;;;;;;;;;;;;;;;2081239;28;20258;-80
2023/10/13 00:15:58;;;;;;;;;;;;;;;;;;2081215;28;20358;-79
2023/10/13 00:17:20;;;;;;;;;;;;;;;;;;2075786;28;19945;-80
2023/10/13 00:18:42;;;;;;;;;;;;;;;;;;2070495;28;19914;-81
2023/10/13 00:20:02;;;;;;;;;;;;;;;;;;2071036;28;19921;-80
2023/10/13 00:21:35;;;;;;;;;;;;;;;;;;2068104;28;19930;-80
2023/10/13 00:22:57;;;;;;;;;;;;;;;;;;2074207;28;19905;-80
2023/10/13 00:24:15;;;;;;;;;;;;;;;;;;2079548;28;19909;-80
2023/10/13 00:25:43;;;;;;;;;;;;;;;;;;2076986;28;20827;-81
2023/10/13 00:27:04;;;;;;;;;;;;;;;;;;2075959;28;19917;-81
2023/10/13 00:28:24;;;;;;;;;;;;;;;;;;2076841;28;19905;-80
2023/10/13 00:29:43;;;;;;;;;;;;;;;;;;2071486;28;20004;-81
2023/10/13 00:31:10;;;;;;;;;;;;;;;;;;2081410;28;20382;-80
2023/10/13 00:32:31;;;;;;;;;;;;;;;;;;2076482;28;20363;-80
2023/10/13 00:33:51;;;;;;;;;;;;;;;;;;2078306;28;19905;-80
2023/10/13 00:35:24;;;;;;;;;;;;;;;;;;2073918;28;19910;-81
2023/10/13 00:37:15;;;;;;;;;;;;;;;;;;2069761;28;20402;-80
2023/10/13 00:38:28;;;;;;;;;;;;;;;;;;2079766;28;19909;-79
2023/10/13 00:39:46;;;;;;;;;;;;;;;;;;2077930;28;19913;-78
2023/10/13 00:41:16;;;;;;;;;;;;;;;;;;2073645;28;19905;-81
2023/10/13 00:42:50;;;;;;;;;;;;;;;;;;2080897;28;20354;-79
2023/10/13 00:44:09;;;;;;;;;;;;;;;;;;2075905;28;19948;-81
2023/10/13 00:45:29;;;;;;;;;;;;;;;;;;2076198;28;19950;-81
2023/10/13 00:46:49;;;;;;;;;;;;;;;;;;2068689;28;20374;-79
2023/10/13 00:48:10;;;;;;;;;;;;;;;;;;2077714;28;19916;-80
2023/10/13 00:49:30;;;;;;;;;;;;;;;;;;2075089;28;19952;-81
2023/10/13 00:50:49;;;;;;;;;;;;;;;;;;2079629;28;19909;-81
2023/10/13 00:52:10;;;;;;;;;;;;;;;;;;2081471;28;19909;-81
2023/10/13 00:53:29;;;;;;;;;;;;;;;;;;2076333;28;19909;-79
2023/10/13 00:54:48;;;;;;;;;;;;;;;;;;2070023;28;20396;-80
2023/10/13 00:56:07;;;;;;;;;;;;;;;;;;2079599;28;19905;-81
2023/10/13 00:57:26;;;;;;;;;;;;;;;;;;2080564;28;19909;-80
2023/10/13 00:58:46;;;;;;;;;;;;;;;;;;2075403;28;20504;-81
2023/10/13 01:00:18;;;;;;;;;;;;;;;;;;2076999;28;19988;-80
2023/10/13 01:01:40;;;;;;;;;;;;;;;;;;2080508;28;19944;-80
2023/10/13 01:03:06;;;;;;;;;;;;;;;;;;2081345;28;20282;-80
2023/10/13 01:04:30;;;;;;;;;;;;;;;;;;2074208;28;19941;-79
2023/10/13 01:05:53;;;;;;;;;;;;;;;;;;2075163;28;20374;-80
2023/10/13 01:07:13;;;;;;;;;;;;;;;;;;2077989;28;19909;-80
2023/10/13 01:08:35;;;;;;;;;;;;;;;;;;2079990;28;19908;-81
2023/10/13 01:09:56;;;;;;;;;;;;;;;;;;2079624;28;19905;-80
2023/10/13 01:11:15;;;;;;;;;;;;;;;;;;2075196;28;20071;-80
2023/10/13 01:12:34;;;;;;;;;;;;;;;;;;2070162;28;19949;-81
2023/10/13 01:13:53;;;;;;;;;;;;;;;;;;2075718;28;20329;-80
2023/10/13 01:15:16;;;;;;;;;;;;;;;;;;2076143;28;19905;-81
2023/10/13 01:16:35;;;;;;;;;;;;;;;;;;2075564;28;19948;-80
2023/10/13 01:17:56;;;;;;;;;;;;;;;;;;2079133;28;19913;-80
2023/10/13 01:19:18;;;;;;;;;;;;;;;;;;2075971;28;19914;-81
2023/10/13 01:20:49;;;;;;;;;;;;;;;;;;2072969;28;19916;-81
2023/10/13 01:22:11;;;;;;;;;;;;;;;;;;2079541;28;19913;-81
2023/10/13 01:23:37;;;;;;;;;;;;;;;;;;2081379;28;19905;-81
2023/10/13 01:25:18;;;;;;;;;;;;;;;;;;2081213;28;19937;-81
2023/10/13 01:26:39;;;;;;;;;;;;;;;;;;2079202;28;19987;-81
2023/10/13 01:27:57;;;;;;;;;;;;;;;;;;2081006;28;20527;-81
2023/10/13 01:29:18;;;;;;;;;;;;;;;;;;2075013;28;19913;-81
2023/10/13 01:30:39;;;;;;;;;;;;;;;;;;2071804;28;19905;-81
2023/10/13 01:31:58;;;;;;;;;;;;;;;;;;2077747;28;19960;-81
2023/10/13 01:33:17;;;;;;;;;;;;;;;;;;2081224;28;20039;-81
2023/10/13 01:34:37;;;;;;;;;;;;;;;;;;2069065;28;20385;-81
2023/10/13 01:35:58;;;;;;;;;;;;;;;;;;2074449;28;20336;-81
2023/10/13 01:37:19;;;;;;;;;;;;;;;;;;2072885;28;19905;-81
2023/10/13 01:38:38;;;;;;;;;;;;;;;;;;2074642;28;19905;-80
2023/10/13 01:39:57;;;;;;;;;;;;;;;;;;2076676;28;20301;-80
2023/10/13 01:41:17;;;;;;;;;;;;;;;;;;2079688;28;20400;-80
2023/10/13 01:42:36;;;;;;;;;;;;;;;;;;2071228;28;19910;-80
2023/10/13 01:43:57;;;;;;;;;;;;;;;;;;2076643;28;19913;-80
2023/10/13 01:45:19;;;;;;;;;;;;;;;;;;2071757;28;19937;-80
2023/10/13 01:46:39;;;;;;;;;;;;;;;;;;2067620;28;19913;-80
2023/10/13 01:47:57;;;;;;;;;;;;;;;;;;2077221;28;19909;-80
2023/10/13 01:49:16;;;;;;;;;;;;;;;;;;2080376;28;20359;-80
2023/10/13 01:50:35;;;;;;;;;;;;;;;;;;2078683;28;19905;-80
2023/10/13 01:51:54;;;;;;;;;;;;;;;;;;2073153;28;19940;-80
2023/10/13 01:53:12;;;;;;;;;;;;;;;;;;2076311;28;20035;-80
2023/10/13 01:54:32;;;;;;;;;;;;;;;;;;2074834;28;19905;-80
2023/10/13 01:55:51;;;;;;;;;;;;;;;;;;2078249;28;19944;-80
2023/10/13 01:57:14;;;;;;;;;;;;;;;;;;2081528;28;19914;-80
2023/10/13 01:58:34;;;;;;;;;;;;;;;;;;2079144;28;20681;-80
2023/10/13 01:59:54;;;;;;;;;;;;;;;;;;2075693;28;19906;-80
2023/10/13 02:01:13;;;;;;;;;;;;;;;;;;2076816;28;19913;-81
2023/10/13 02:02:32;;;;;;;;;;;;;;;;;;2073527;28;19913;-81
2023/10/13 02:04:01;;;;;;;;;;;;;;;;;;2078000;28;19909;-81
2023/10/13 02:05:19;;;;;;;;;;;;;;;;;;2076870;28;19909;-81
2023/10/13 02:06:38;;;;;;;;;;;;;;;;;;2069565;28;19917;-81
2023/10/13 02:08:01;;;;;;;;;;;;;;;;;;2077336;28;19909;-81
2023/10/13 02:09:26;;;;;;;;;;;;;;;;;;2081323;28;19913;-81
2023/10/13 02:10:46;;;;;;;;;;;;;;;;;;2081172;28;19905;-81
2023/10/13 02:12:05;;;;;;;;;;;;;;;;;;2074855;28;20370;-81
2023/10/13 02:13:24;;;;;;;;;;;;;;;;;;2079234;28;20338;-81
2023/10/13 02:14:44;;;;;;;;;;;;;;;;;;2072028;28;19964;-81
2023/10/13 02:16:04;;;;;;;;;;;;;;;;;;2075146;28;20366;-81
2023/10/13 02:17:23;;;;;;;;;;;;;;;;;;2070346;28;19913;-81
2023/10/13 02:18:43;;;;;;;;;;;;;;;;;;2075948;28;19909;-80
2023/10/13 02:20:07;;;;;;;;;;;;;;;;;;2072959;28;19905;-81
2023/10/13 02:21:31;;;;;;;;;;;;;;;;;;2077797;28;19913;-80
2023/10/13 02:22:51;;;;;;;;;;;;;;;;;;2080037;28;19913;-80
2023/10/13 02:24:13;;;;;;;;;;;;;;;;;;2074686;28;20681;-81
2023/10/13 02:25:35;;;;;;;;;;;;;;;;;;2071525;28;19909;-81
2023/10/13 02:26:54;;;;;;;;;;;;;;;;;;2072007;28;19913;-80
2023/10/13 02:28:21;;;;;;;;;;;;;;;;;;2078465;28;19988;-81
2023/10/13 02:29:40;;;;;;;;;;;;;;;;;;2074454;28;20117;-82
2023/10/13 02:30:59;;;;;;;;;;;;;;;;;;2071514;28;19913;-81
2023/10/13 02:32:19;;;;;;;;;;;;;;;;;;2070321;28;19933;-80
2023/10/13 02:33:44;;;;;;;;;;;;;;;;;;2071287;28;19909;-80
2023/10/13 02:35:07;;;;;;;;;;;;;;;;;;2076738;28;19917;-80
2023/10/13 02:36:36;;;;;;;;;;;;;;;;;;2079442;28;20048;-81
2023/10/13 02:37:56;;;;;;;;;;;;;;;;;;2073062;28;19910;-79
2023/10/13 02:39:16;;;;;;;;;;;;;;;;;;2074621;28;19905;-80
2023/10/13 02:40:34;;;;;;;;;;;;;;;;;;2079086;28;19913;-80
2023/10/13 02:41:55;;;;;;;;;;;;;;;;;;2079548;28;20351;-80
2023/10/13 02:43:14;;;;;;;;;;;;;;;;;;2072829;28;19906;-80
2023/10/13 02:44:33;;;;;;;;;;;;;;;;;;2074190;28;19906;-80
2023/10/13 02:46:01;;;;;;;;;;;;;;;;;;2079028;28;19908;-80
2023/10/13 02:47:23;;;;;;;;;;;;;;;;;;2078206;28;19921;-79
2023/10/13 02:48:45;;;;;;;;;;;;;;;;;;2074700;28;19951;-80
2023/10/13 02:50:11;;;;;;;;;;;;;;;;;;2077328;28;19908;-81
2023/10/13 02:51:36;;;;;;;;;;;;;;;;;;2074721;28;19909;-81
2023/10/13 02:52:55;;;;;;;;;;;;;;;;;;2077557;28;19956;-80
2023/10/13 02:54:20;;;;;;;;;;;;;;;;;;2072064;28;20508;-80
2023/10/13 02:55:39;;;;;;;;;;;;;;;;;;2067702;28;20544;-80
2023/10/13 02:56:59;;;;;;;;;;;;;;;;;;2075788;28;20056;-80
2023/10/13 02:58:18;;;;;;;;;;;;;;;;;;2067868;28;19905;-80
2023/10/13 02:59:40;;;;;;;;;;;;;;;;;;2074311;28;19905;-80
2023/10/13 03:00:59;;;;;;;;;;;;;;;;;;2079923;28;19908;-80
2023/10/13 03:02:20;;;;;;;;;;;;;;;;;;2073205;28;20338;-80
2023/10/13 03:03:40;;;;;;;;;;;;;;;;;;2071431;28;19917;-80
2023/10/13 03:04:59;;;;;;;;;;;;;;;;;;2073773;28;19913;-81
2023/10/13 03:06:21;;;;;;;;;;;;;;;;;;2079100;28;19905;-81
2023/10/13 03:07:43;;;;;;;;;;;;;;;;;;2069948;28;19918;-81
2023/10/13 03:09:14;;;;;;;;;;;;;;;;;;2076453;28;20236;-80
2023/10/13 03:10:33;;;;;;;;;;;;;;;;;;2081734;28;19940;-80
2023/10/13 03:11:52;;;;;;;;;;;;;;;;;;2083909;28;19953;-80
2023/10/13 03:13:11;;;;;;;;;;;;;;;;;;2083770;28;19901;-81
2023/10/13 03:14:33;;;;;;;;;;;;;;;;;;2088508;28;19905;-80
2023/10/13 03:15:55;;;;;;;;;;;;;;;;;;2088550;28;19901;-81
2023/10/13 03:17:18;;;;;;;;;;;;;;;;;;2083862;28;19909;-80
2023/10/13 03:18:38;;;;;;;;;;;;;;;;;;2086194;28;19905;-81
2023/10/13 03:19:57;;;;;;;;;;;;;;;;;;2081730;28;19913;-81
2023/10/13 03:21:27;;;;;;;;;;;;;;;;;;2067759;28;19953;-80
2023/10/13 03:22:46;;;;;;;;;;;;;;;;;;2066583;28;20000;-81
2023/10/13 03:24:07;;;;;;;;;;;;;;;;;;2064391;28;19964;-81
2023/10/13 03:26:52;;;;;;;;;;;;;;;;;;2065007;28;20339;-81
2023/10/13 03:28:16;;;;;;;;;;;;;;;;;;2064453;28;20533;-81
2023/10/13 03:29:35;;;;;;;;;;;;;;;;;;2063355;28;19957;-81
2023/10/13 03:30:54;;;;;;;;;;;;;;;;;;2065522;28;19945;-81
2023/10/13 03:32:14;;;;;;;;;;;;;;;;;;2064817;28;19913;-81
2023/10/13 03:33:33;;;;;;;;;;;;;;;;;;2064865;28;20512;-81
2023/10/13 03:35:17;;;;;;;;;;;;;;;;;;2063839;28;19905;-81
2023/10/13 03:36:56;;;;;;;;;;;;;;;;;;2063749;28;19910;-81
2023/10/13 03:38:19;;;;;;;;;;;;;;;;;;2064369;28;19914;-81
2023/10/13 03:39:38;;;;;;;;;;;;;;;;;;2065091;28;20254;-80
2023/10/13 03:41:19;;;;;;;;;;;;;;;;;;2063884;28;19910;-81
2023/10/13 03:42:40;;;;;;;;;;;;;;;;;;2064403;28;20535;-81
2023/10/13 03:44:13;;;;;;;;;;;;;;;;;;2064749;28;19918;-81
2023/10/13 03:45:44;;;;;;;;;;;;;;;;;;2064835;28;19966;-81
2023/10/13 03:47:17;;;;;;;;;;;;;;;;;;2065029;28;20409;-80
2023/10/13 03:48:54;;;;;;;;;;;;;;;;;;2071274;28;19913;-81
2023/10/13 03:50:16;;;;;;;;;;;;;;;;;;2065282;28;19909;-81
2023/10/13 03:51:38;;;;;;;;;;;;;;;;;;2062289;28;20295;-81
2023/10/13 03:53:00;;;;;;;;;;;;;;;;;;2063947;28;19906;-81
2023/10/13 03:54:19;;;;;;;;;;;;;;;;;;2067408;28;19996;-81
2023/10/13 03:55:38;;;;;;;;;;;;;;;;;;2065808;28;20263;-81
2023/10/13 03:56:57;;;;;;;;;;;;;;;;;;2064732;28;19941;-82
2023/10/13 03:58:17;;;;;;;;;;;;;;;;;;2063882;28;20299;-81
2023/10/13 03:59:36;;;;;;;;;;;;;;;;;;2065554;28;19914;-81
2023/10/13 04:00:55;;;;;;;;;;;;;;;;;;2064875;28;19905;-82
2023/10/13 04:02:18;;;;;;;;;;;;;;;;;;2064725;28;20292;-82
2023/10/13 04:03:37;;;;;;;;;;;;;;;;;;2064186;28;19996;-81
2023/10/13 04:05:07;;;;;;;;;;;;;;;;;;2065597;28;19909;-81
2023/10/13 04:09:45;;;;;;;;;;;;;;;;;;2065777;28;19910;-81
2023/10/13 04:14:52;;;;;;;;;;;;;;;;;;2063692;28;20284;-81
2023/10/13 04:17:46;;;;;;;;;;;;;;;;;;2064689;28;20430;-82
2023/10/13 04:19:08;;;;;;;;;;;;;;;;;;2064723;28;19910;-80
2023/10/13 04:20:32;;;;;;;;;;;;;;;;;;2067273;28;20004;-81
2023/10/13 04:21:58;;;;;;;;;;;;;;;;;;2072971;28;19917;-82
2023/10/13 04:23:18;;;;;;;;;;;;;;;;;;2070282;28;19985;-82
2023/10/13 04:26:08;;;;;;;;;;;;;;;;;;2067866;28;20279;-81
2023/10/13 04:27:39;;;;;;;;;;;;;;;;;;2065969;28;20004;-81
2023/10/13 04:29:09;;;;;;;;;;;;;;;;;;2070312;28;19905;-80
2023/10/13 04:30:38;;;;;;;;;;;;;;;;;;2066775;28;20236;-81
2023/10/13 04:32:00;;;;;;;;;;;;;;;;;;2068243;28;19914;-81
2023/10/13 04:34:27;;;;;;;;;;;;;;;;;;2071153;28;20429;-81
2023/10/13 04:37:58;;;;;;;;;;;;;;;;;;2068393;28;19953;-81
2023/10/13 04:39:29;;;;;;;;;;;;;;;;;;2067969;28;20298;-81
2023/10/13 04:41:22;;;;;;;;;;;;;;;;;;2067577;28;19909;-81
2023/10/13 04:42:49;;;;;;;;;;;;;;;;;;2067263;28;19918;-80
2023/10/13 04:45:54;;;;;;;;;;;;;;;;;;2060253;28;19905;-80
2023/10/13 04:47:21;;;;;;;;;;;;;;;;;;2060257;28;20005;-78
2023/10/13 04:48:40;;;;;;;;;;;;;;;;;;2066071;28;20347;-79
2023/10/13 04:50:01;;;;;;;;;;;;;;;;;;2061234;28;19914;-79
2023/10/13 04:53:01;;;;;;;;;;;;;;;;;;2066680;28;19985;-79
2023/10/13 04:54:32;;;;;;;;;;;;;;;;;;2076256;28;19996;-80
2023/10/13 05:02:42;;;;;;;;;;;;;;;;;;2067328;28;19917;-79
2023/10/13 05:49:20;;;;;;;;;;;;;;;;;;2063127;28;19906;-79
2023/10/13 05:50:49;;;;;;;;;;;;;;;;;;2064567;28;19918;-80
2023/10/13 05:52:18;;;;;;;;;;;;;;;;;;2064506;28;19913;-79
2023/10/13 06:29:55;;;;;;;;;;;;;;;;;;2080371;28;19905;-80
2023/10/13 06:31:25;;;;;;;;;;;;;;;;;;2076810;28;20028;-80
2023/10/13 06:32:46;;;;;;;;;;;;;;;;;;2074241;28;19913;-80
2023/10/13 06:34:04;;;;;;;;;;;;;;;;;;2077736;28;19961;-80
2023/10/13 06:35:23;;;;;;;;;;;;;;;;;;2080578;28;19913;-80
2023/10/13 06:36:46;;;;;;;;;;;;;;;;;;2081382;28;19909;-80
2023/10/13 06:38:09;;;;;;;;;;;;;;;;;;2075725;28;19909;-81
2023/10/13 06:39:35;;;;;;;;;;;;;;;;;;2078485;28;19913;-80
2023/10/13 06:40:56;;;;;;;;;;;;;;;;;;2080297;28;19913;-80
2023/10/13 06:42:16;;;;;;;;;;;;;;;;;;2076238;28;19905;-80
2023/10/13 06:43:42;;;;;;;;;;;;;;;;;;2076541;28;19905;-80
2023/10/13 06:45:16;;;;;;;;;;;;;;;;;;2084012;28;19904;-80
2023/10/13 06:46:35;;;;;;;;;;;;;;;;;;2077432;28;19913;-80
2023/10/13 06:47:55;;;;;;;;;;;;;;;;;;2083184;28;19909;-80
2023/10/13 06:49:14;;;;;;;;;;;;;;;;;;2084527;28;19909;-79
2023/10/13 06:50:39;;;;;;;;;;;;;;;;;;2088973;28;19901;-79
2023/10/13 06:52:00;;;;;;;;;;;;;;;;;;2090869;28;19949;-80
2023/10/13 06:53:19;;;;;;;;;;;;;;;;;;2084781;28;19901;-79
2023/10/13 06:54:39;;;;;;;;;;;;;;;;;;2086217;28;19913;-79
2023/10/13 06:55:58;;;;;;;;;;;;;;;;;;2087268;28;19960;-79
2023/10/13 06:57:20;;;;;;;;;;;;;;;;;;2083126;28;19909;-79
2023/10/13 06:58:43;;;;;;;;;;;;;;;;;;2079914;28;19972;-80
2023/10/13 07:00:07;;;;;;;;;;;;;;;;;;2079048;28;19992;-80
2023/10/13 07:01:27;;;;;;;;;;;;;;;;;;2082407;28;19909;-80
2023/10/13 07:02:46;;;;;;;;;;;;;;;;;;2074892;28;20346;-80
2023/10/13 07:04:12;;;;;;;;;;;;;;;;;;2077418;28;20412;-79
2023/10/13 07:05:34;;;;;;;;;;;;;;;;;;2080699;28;20332;-80
2023/10/13 07:06:54;;;;;;;;;;;;;;;;;;2080389;28;19905;-79
2023/10/13 07:08:19;;;;;;;;;;;;;;;;;;2075577;28;19913;-80
2023/10/13 07:09:49;;;;;;;;;;;;;;;;;;2071431;28;20591;-80
2023/10/13 07:11:18;;;;;;;;;;;;;;;;;;2079382;28;19981;-80
2023/10/13 07:12:37;;;;;;;;;;;;;;;;;;2075868;28;19906;-79
2023/10/13 07:13:58;;;;;;;;;;;;;;;;;;2078798;28;19908;-80
2023/10/13 07:16:36;;;;;;;;;;;;;;;;;;2080711;28;19905;-79
2023/10/13 07:17:59;;;;;;;;;;;;;;;;;;2074971;28;19922;-80
2023/10/13 07:19:18;;;;;;;;;;;;;;;;;;2075077;28;19905;-79
2023/10/13 07:20:43;;;;;;;;;;;;;;;;;;2078954;28;20301;-80
2023/10/13 07:22:21;;;;;;;;;;;;;;;;;;2081156;28;20274;-80
2023/10/13 07:23:43;;;;;;;;;;;;;;;;;;2074775;28;19909;-80
2023/10/13 07:25:06;;;;;;;;;;;;;;;;;;2078573;28;19908;-79
2023/10/13 07:26:25;;;;;;;;;;;;;;;;;;2076308;28;19906;-80
2023/10/13 07:27:43;;;;;;;;;;;;;;;;;;2078661;28;19917;-80
2023/10/13 07:29:02;;;;;;;;;;;;;;;;;;2074702;28;19909;-80
2023/10/13 07:30:26;;;;;;;;;;;;;;;;;;2078226;28;19913;-80
2023/10/13 07:31:45;;;;;;;;;;;;;;;;;;2080925;28;19905;-80
2023/10/13 07:33:05;;;;;;;;;;;;;;;;;;2080902;28;20267;-80
2023/10/13 07:34:24;;;;;;;;;;;;;;;;;;2081672;28;19906;-80
2023/10/13 07:35:43;;;;;;;;;;;;;;;;;;2075180;28;19905;-80
2023/10/13 07:37:07;;;;;;;;;;;;;;;;;;2074991;28;19913;-79
2023/10/13 07:38:30;;;;;;;;;;;;;;;;;;2078649;28;20317;-80
2023/10/13 07:39:50;;;;;;;;;;;;;;;;;;2080525;28;19974;-80
2023/10/13 07:41:09;;;;;;;;;;;;;;;;;;2075451;28;20504;-80
2023/10/13 07:42:38;;;;;;;;;;;;;;;;;;2078856;28;19905;-79
2023/10/13 07:43:59;;;;;;;;;;;;;;;;;;2080887;28;19917;-80
2023/10/13 07:45:21;;;;;;;;;;;;;;;;;;2075694;28;20004;-79
2023/10/13 07:46:40;;;;;;;;;;;;;;;;;;2078581;28;20265;-79
2023/10/13 07:48:00;;;;;;;;;;;;;;;;;;2074725;28;20314;-79
2023/10/13 07:49:21;;;;;;;;;;;;;;;;;;2077805;28;19909;-79
2023/10/13 07:50:40;;;;;;;;;;;;;;;;;;2075029;28;20051;-79
2023/10/13 07:52:01;;;;;;;;;;;;;;;;;;2075321;28;20060;-80
2023/10/13 07:53:22;;;;;;;;;;;;;;;;;;2078936;28;19905;-79
2023/10/13 07:54:44;;;;;;;;;;;;;;;;;;2080596;28;19980;-79
2023/10/13 07:56:05;;;;;;;;;;;;;;;;;;2074148;28;19913;-79
2023/10/13 07:57:29;;;;;;;;;;;;;;;;;;2075028;28;19908;-79
2023/10/13 07:59:09;;;;;;;;;;;;;;;;;;2078670;28;19912;-80
2023/10/13 08:02:12;;;;;;;;;;;;;;;;;;2080296;28;20903;-79
2023/10/13 08:03:46;;;;;;;;;;;;;;;;;;2074791;28;19992;-79
2023/10/13 08:05:05;;;;;;;;;;;;;;;;;;2072939;28;19909;-79
2023/10/13 08:06:26;;;;;;;;;;;;;;;;;;2076632;28;19905;-79
2023/10/13 08:07:54;;;;;;;;;;;;;;;;;;2079491;28;19916;-79
2023/10/13 08:09:32;;;;;;;;;;;;;;;;;;2081144;28;19908;-79
2023/10/13 08:10:55;;;;;;;;;;;;;;;;;;2075434;28;20543;-79
2023/10/13 08:12:21;;;;;;;;;;;;;;;;;;2078541;28;19905;-83
2023/10/13 08:13:46;;;;;;;;;;;;;;;;;;2078248;28;20317;-79
2023/10/13 08:15:20;;;;;;;;;;;;;;;;;;2079414;28;20047;-80
2023/10/13 08:16:47;;;;;;;;;;;;;;;;;;2074644;28;19913;-80
2023/10/13 08:18:10;;;;;;;;;;;;;;;;;;2072814;28;19913;-80
2023/10/13 08:19:39;;;;;;;;;;;;;;;;;;2080571;28;19912;-80
2023/10/13 08:21:15;;;;;;;;;;;;;;;;;;2072674;28;19912;-79
2023/10/13 08:22:39;;;;;;;;;;;;;;;;;;2079560;28;20553;-80
2023/10/13 08:23:59;;;;;;;;;;;;;;;;;;2081767;28;20004;-80
2023/10/13 08:25:24;;;;;;;;;;;;;;;;;;2080029;28;19905;-80
2023/10/13 08:31:41;;;;;;;;;;;;;;;;;;2080874;28;19905;-80
2023/10/13 08:33:16;;;;;;;;;;;;;;;;;;2080917;28;19905;-80
2023/10/13 08:35:22;;;;;;;;;;;;;;;;;;2081887;28;19905;-80
2023/10/13 08:36:30;;;;;;;;;;;;;;;;;;2080005;28;19905;-79
2023/10/13 08:41:53;;;;;;;;;;;;;;;;;;2080890;28;19913;-80
2023/10/13 08:44:03;;;;;;;;;;;;;;;;;;2080757;28;20346;-80
2023/10/13 08:47:05;;;;;;;;;;;;;;;;;;2080241;28;19909;-79
2023/10/13 08:48:31;;;;;;;;;;;;;;;;;;2077208;28;20262;-80
2023/10/13 08:50:10;;;;;;;;;;;;;;;;;;2080793;28;20012;-80
2023/10/13 08:51:43;;;;;;;;;;;;;;;;;;2073716;28;19917;-80
2023/10/13 08:53:09;;;;;;;;;;;;;;;;;;2073807;28;19914;-80
2023/10/13 08:54:34;;;;;;;;;;;;;;;;;;2077702;28;20020;-79
2023/10/13 08:56:05;;;;;;;;;;;;;;;;;;2075451;28;20546;-79
2023/10/13 08:57:32;;;;;;;;;;;;;;;;;;2072763;28;19933;-80
2023/10/13 09:00:55;;;;;;;;;;;;;;;;;;2080967;28;19909;-80
2023/10/13 09:02:17;;;;;;;;;;;;;;;;;;2079970;28;19905;-80
2023/10/13 09:03:41;;;;;;;;;;;;;;;;;;2082066;28;19961;-80
2023/10/13 09:05:09;;;;;;;;;;;;;;;;;;2075982;28;20381;-80
2023/10/13 09:06:28;;;;;;;;;;;;;;;;;;2074059;28;19905;-81
2023/10/13 09:07:47;;;;;;;;;;;;;;;;;;2079884;28;19909;-80
2023/10/13 09:09:09;;;;;;;;;;;;;;;;;;2075347;28;19906;-82
2023/10/13 09:10:34;;;;;;;;;;;;;;;;;;2076128;28;19905;-81
2023/10/13 09:12:04;;;;;;;;;;;;;;;;;;2078427;28;20358;-81
2023/10/13 09:13:23;;;;;;;;;;;;;;;;;;2074571;28;20453;-80
2023/10/13 09:14:47;;;;;;;;;;;;;;;;;;2080031;28;19920;-81
2023/10/13 09:16:15;;;;;;;;;;;;;;;;;;2075432;28;19909;-80
2023/10/13 09:17:34;;;;;;;;;;;;;;;;;;2069500;28;19906;-80
2023/10/13 09:18:53;;;;;;;;;;;;;;;;;;2077522;28;19905;-79
2023/10/13 09:24:21;;;;;;;;;;;;;;;;;;2081454;28;19908;-79
2023/10/13 09:25:53;;;;;;;;;;;;;;;;;;2080776;28;20027;-79
2023/10/13 09:27:13;;;;;;;;;;;;;;;;;;2076376;28;19964;-80
2023/10/13 09:28:31;;;;;;;;;;;;;;;;;;2074605;28;19921;-80
2023/10/13 09:29:52;;;;;;;;;;;;;;;;;;2079872;28;19905;-80
2023/10/13 09:31:11;;;;;;;;;;;;;;;;;;2081182;28;19909;-79
2023/10/13 09:32:30;;;;;;;;;;;;;;;;;;2081290;28;19909;-80
2023/10/13 09:33:51;;;;;;;;;;;;;;;;;;2081307;28;20443;-80
2023/10/13 09:35:13;;;;;;;;;;;;;;;;;;2074614;28;20374;-80
2023/10/13 09:36:35;;;;;;;;;;;;;;;;;;2078607;28;19913;-80
2023/10/13 09:38:03;;;;;;;;;;;;;;;;;;2081740;28;19909;-81
2023/10/13 09:41:26;;;;;;;;;;;;;;;;;;2070219;28;20371;-79
2023/10/13 09:42:44;;;;;;;;;;;;;;;;;;2073010;28;20363;-79
2023/10/13 09:44:04;;;;;;;;;;;;;;;;;;2067850;28;19978;-81
2023/10/13 09:45:27;;;;;;;;;;;;;;;;;;2076579;28;19912;-80
2023/10/13 09:46:45;;;;;;;;;;;;;;;;;;2071241;28;19948;-81
2023/10/13 09:48:06;;;;;;;;;;;;;;;;;;2078219;28;19972;-81
2023/10/13 09:49:44;;;;;;;;;;;;;;;;;;2073175;28;20149;-80
2023/10/13 09:51:08;;;;;;;;;;;;;;;;;;2080692;28;19949;-80
2023/10/13 09:52:27;;;;;;;;;;;;;;;;;;2073344;28;20347;-80
2023/10/13 09:53:47;;;;;;;;;;;;;;;;;;2077512;28;19920;-79
2023/10/13 09:55:09;;;;;;;;;;;;;;;;;;2072623;28;20004;-80
2023/10/13 09:56:42;;;;;;;;;;;;;;;;;;2076861;28;20477;-80
2023/10/13 09:58:09;;;;;;;;;;;;;;;;;;2078398;28;19995;-80
2023/10/13 09:59:34;;;;;;;;;;;;;;;;;;2079486;28;19981;-79
2023/10/13 10:00:57;;;;;;;;;;;;;;;;;;2077367;28;19905;-79
2023/10/13 10:02:26;;;;;;;;;;;;;;;;;;2079394;28;20004;-80
2023/10/13 10:03:50;;;;;;;;;;;;;;;;;;2081094;28;19939;-81
2023/10/13 10:05:21;;;;;;;;;;;;;;;;;;2080212;28;19913;-80
2023/10/13 10:06:45;;;;;;;;;;;;;;;;;;2073741;28;20362;-80
2023/10/13 10:08:04;;;;;;;;;;;;;;;;;;2075321;28;19913;-80
2023/10/13 10:09:23;;;;;;;;;;;;;;;;;;2077053;28;19959;-80
2023/10/13 10:10:44;;;;;;;;;;;;;;;;;;2080736;28;19913;-80
2023/10/13 10:12:04;;;;;;;;;;;;;;;;;;2081856;28;19913;-81
2023/10/13 10:13:23;;;;;;;;;;;;;;;;;;2075028;28;20013;-80
2023/10/13 10:14:42;;;;;;;;;;;;;;;;;;2078354;28;19905;-80
2023/10/13 10:16:02;;;;;;;;;;;;;;;;;;2081058;28;19905;-80
2023/10/13 10:17:21;;;;;;;;;;;;;;;;;;2080661;28;19913;-80
2023/10/13 10:18:40;;;;;;;;;;;;;;;;;;2081418;28;19905;-80
2023/10/13 10:19:59;;;;;;;;;;;;;;;;;;2080385;28;19909;-80
2023/10/13 10:21:21;;;;;;;;;;;;;;;;;;2064527;28;19926;-79
2023/10/13 10:22:44;;;;;;;;;;;;;;;;;;2065481;28;19910;-79
2023/10/13 10:24:08;;;;;;;;;;;;;;;;;;2066721;28;20319;-79
2023/10/13 10:25:28;;;;;;;;;;;;;;;;;;2070683;28;19910;-80
2023/10/13 10:26:47;;;;;;;;;;;;;;;;;;2073501;28;19897;-79
2023/10/13 10:28:06;;;;;;;;;;;;;;;;;;2073155;28;19926;-79
2023/10/13 10:29:25;;;;;;;;;;;;;;;;;;2073918;28;19933;-79
2023/10/13 10:30:44;;;;;;;;;;;;;;;;;;2072944;28;19894;-79
2023/10/13 10:32:06;;;;;;;;;;;;;;;;;;2072604;28;19909;-79
2023/10/13 10:33:25;;;;;;;;;;;;;;;;;;2070368;28;19906;-80
2023/10/13 10:34:44;;;;;;;;;;;;;;;;;;2070504;28;20363;-79
2023/10/13 10:36:02;;;;;;;;;;;;;;;;;;2065281;28;19905;-79
2023/10/13 10:37:21;;;;;;;;;;;;;;;;;;2066326;28;19909;-79
2023/10/13 10:38:40;;;;;;;;;;;;;;;;;;2064787;28;20005;-80
2023/10/13 10:40:00;;;;;;;;;;;;;;;;;;2065852;28;19949;-80
2023/10/13 10:41:25;;;;;;;;;;;;;;;;;;2063392;28;20484;-80
2023/10/13 10:42:44;;;;;;;;;;;;;;;;;;2064347;28;19906;-80
2023/10/13 10:44:08;;;;;;;;;;;;;;;;;;2063599;28;20036;-80
2023/10/13 10:45:33;;;;;;;;;;;;;;;;;;2063594;28;20367;-79
2023/10/13 10:47:01;;;;;;;;;;;;;;;;;;2063507;28;19905;-80
2023/10/13 10:48:21;;;;;;;;;;;;;;;;;;2064398;28;19921;-80
2023/10/13 10:49:41;;;;;;;;;;;;;;;;;;2064073;28;19910;-80
2023/10/13 10:51:06;;;;;;;;;;;;;;;;;;2063540;28;19909;-80
2023/10/13 10:52:26;;;;;;;;;;;;;;;;;;2062617;28;19945;-80
2023/10/13 10:53:45;;;;;;;;;;;;;;;;;;2067904;28;19909;-80
2023/10/13 10:55:07;;;;;;;;;;;;;;;;;;2062884;28;20012;-79
2023/10/13 10:56:36;;;;;;;;;;;;;;;;;;2062582;28;19905;-80
2023/10/13 10:57:55;;;;;;;;;;;;;;;;;;2063362;28;19909;-80
2023/10/13 10:59:24;;;;;;;;;;;;;;;;;;2063503;28;20000;-80
2023/10/13 11:00:50;;;;;;;;;;;;;;;;;;2063234;28;20448;-80
2023/10/13 11:02:08;;;;;;;;;;;;;;;;;;2063294;28;20004;-80
2023/10/13 11:03:27;;;;;;;;;;;;;;;;;;2063224;28;19906;-80
2023/10/13 11:04:53;;;;;;;;;;;;;;;;;;2064342;28;20521;-79
2023/10/13 11:06:17;;;;;;;;;;;;;;;;;;2063742;28;19945;-80
2023/10/13 11:07:36;;;;;;;;;;;;;;;;;;2062830;28;20029;-80
2023/10/13 11:08:55;;;;;;;;;;;;;;;;;;2061202;28;19996;-80
2023/10/13 11:10:31;;;;;;;;;;;;;;;;;;2062861;28;19918;-79
2023/10/13 11:11:53;;;;;;;;;;;;;;;;;;2062657;28;19905;-80
2023/10/13 11:13:14;;;;;;;;;;;;;;;;;;2063514;28;20365;-79
2023/10/13 11:14:33;;;;;;;;;;;;;;;;;;2062313;28;20004;-80
2023/10/13 11:15:52;;;;;;;;;;;;;;;;;;2063312;28;19910;-80
2023/10/13 11:17:20;;;;;;;;;;;;;;;;;;2064161;28;20367;-80
2023/10/13 11:18:40;;;;;;;;;;;;;;;;;;2064195;28;19910;-80
2023/10/13 11:20:02;;;;;;;;;;;;;;;;;;2064109;28;19917;-80
2023/10/13 11:21:22;;;;;;;;;;;;;;;;;;2074071;28;19917;-80
2023/10/13 11:22:46;;;;;;;;;;;;;;;;;;2072090;28;19910;-80
2023/10/13 11:24:08;;;;;;;;;;;;;;;;;;2076735;28;19947;-80
2023/10/13 11:25:34;;;;;;;;;;;;;;;;;;2074448;28;19909;-80
2023/10/13 11:26:54;;;;;;;;;;;;;;;;;;2072916;28;19983;-80
2023/10/13 11:28:48;;;;;;;;;;;;;;;;;;2079360;28;19913;-80
2023/10/13 11:30:05;;;;;;;;;;;;;;;;;;2080388;28;19992;-80
2023/10/13 11:31:24;;;;;;;;;;;;;;;;;;2075308;28;19909;-80
2023/10/13 11:32:43;;;;;;;;;;;;;;;;;;2078171;28;19905;-80
2023/10/13 11:34:05;;;;;;;;;;;;;;;;;;2075413;28;19905;-80
2023/10/13 11:35:24;;;;;;;;;;;;;;;;;;2075814;28;20318;-81